LFAC Airport Information

Runway Information
Runway 06 Length 5036 ft width 148 ft
Elevation 11 ft Threshold 0 ft Heading 61
Runway 24 Length 5036 ft Width 148 ft
Elevation 11 ft Threshold 0 ft Heading 241
Airport Frequencies
Type APP Name LILLE APP Frequency 120.275 MHZ
Type ATIS Name ATIS Frequency 135.45 MHZ
Type TWR Name TWR Frequency 128.925 MHZ
Airport Navaids
Airport Weather Information & NOTAM
ADDS - METARS form results

(1635 UTC 20 January 2022)
Data provider http://aviationweather.gov/metar/data/
 
METAR text: LFAC 201630Z AUTO 35015KT 9999 BKN026 BKN032 BKN041 05/01 Q1035
Conditions at: LFAC (CALAIS/DUNKERQUE, FR) observed 1630 UTC 20 January 2022
Temperature: 5.0°C (41°F)
Dewpoint: 1.0°C (34°F) [RH = 75%]
Pressure (altimeter): 30.56 inches Hg (1035.0 mb)
Winds: from the N (350 degrees) at 17 MPH (15 knots; 7.7 m/s)
Visibility: 6 or more miles (10+ km)
Ceiling: 2600 feet AGL
Clouds: broken clouds at 2600 feet AGL
broken clouds at 3200 feet AGL
broken clouds at 4100 feet AGL
Weather: no significant weather observed at this time

METAR text: LFAC 201600Z AUTO 35015KT 9999 BKN024 BKN033 OVC049 05/01 Q1034
Conditions at: LFAC (CALAIS/DUNKERQUE, FR) observed 1600 UTC 20 January 2022
Temperature: 5.0°C (41°F)
Dewpoint: 1.0°C (34°F) [RH = 75%]
Pressure (altimeter): 30.53 inches Hg (1034.0 mb)
Winds: from the N (350 degrees) at 17 MPH (15 knots; 7.7 m/s)
Visibility: 6 or more miles (10+ km)
Ceiling: 2400 feet AGL
Clouds: broken clouds at 2400 feet AGL
broken clouds at 3300 feet AGL
overcast cloud deck at 4900 feet AGL
Weather: no significant weather observed at this time